createdAt,value
2019-04-01T00:00:39.431Z,9.80
2019-04-01T00:03:26.473Z,9.97
2019-04-01T00:06:13.713Z,9.63
2019-04-01T00:09:00.741Z,10.20
2019-04-01T00:11:47.870Z,9.93
2019-04-01T00:14:35.136Z,10.50
2019-04-01T00:17:22.095Z,10.00
2019-04-01T00:20:09.669Z,10.77
2019-04-01T00:22:56.854Z,10.63
2019-04-01T00:25:44.214Z,10.23
2019-04-01T00:28:31.595Z,10.53
2019-04-01T00:31:18.589Z,11.27
2019-04-01T00:34:05.780Z,10.47
2019-04-01T00:36:53.019Z,11.60
2019-04-01T00:39:39.830Z,10.53
2019-04-01T00:42:31.110Z,11.57
2019-04-01T00:45:23.193Z,10.17
2019-04-01T00:48:10.240Z,10.93
2019-04-01T00:50:57.398Z,11.60
2019-04-01T00:53:44.343Z,12.00
2019-04-01T00:56:31.426Z,10.57
2019-04-01T00:59:18.355Z,11.17
2019-04-01T01:02:05.502Z,11.87
2019-04-01T01:04:52.892Z,10.10
2019-04-01T01:07:39.984Z,12.93
2019-04-01T01:10:26.924Z,13.00
2019-04-01T01:13:13.919Z,11.83
2019-04-01T01:16:01.214Z,12.90
2019-04-01T01:18:48.543Z,12.40
2019-04-01T01:21:36.615Z,12.87
2019-04-01T01:24:23.922Z,14.77
2019-04-01T01:27:11.077Z,14.40
2019-04-01T01:29:58.331Z,13.67
2019-04-01T01:32:45.537Z,14.17
2019-04-01T01:35:34.096Z,12.90
2019-04-01T01:38:21.356Z,14.30
2019-04-01T01:41:08.617Z,13.93
2019-04-01T01:43:55.638Z,15.30
2019-04-01T01:46:42.993Z,16.00
2019-04-01T01:49:30.241Z,15.77
2019-04-01T01:52:17.202Z,15.63
2019-04-01T01:55:05.335Z,15.00
2019-04-01T01:57:52.402Z,15.63
2019-04-01T02:00:41.130Z,17.93
2019-04-01T02:03:28.042Z,16.93
2019-04-01T02:06:15.377Z,18.13
2019-04-01T02:09:02.807Z,19.43
2019-04-01T02:11:49.852Z,19.33
2019-04-01T02:14:36.979Z,18.33
2019-04-01T02:17:24.124Z,18.93
2019-04-01T02:20:11.418Z,23.00
2019-04-01T02:22:58.605Z,20.37
2019-04-01T02:25:45.557Z,22.33
2019-04-01T02:28:32.395Z,21.03
2019-04-01T02:31:19.498Z,20.63
2019-04-01T02:34:06.961Z,19.50
2019-04-01T02:36:54.070Z,19.53
2019-04-01T02:39:41.201Z,19.07
2019-04-01T02:42:28.191Z,20.57
2019-04-01T02:45:16.662Z,20.13
2019-04-01T02:48:04.038Z,19.07
2019-04-01T02:50:50.978Z,19.17
2019-04-01T02:53:38.151Z,19.07
2019-04-01T02:56:25.385Z,18.73
2019-04-01T02:59:12.816Z,19.60
2019-04-01T03:02:00.048Z,20.27
2019-04-01T03:04:46.988Z,19.40
2019-04-01T03:07:34.203Z,19.80
2019-04-01T03:10:21.310Z,21.00
2019-04-01T03:13:08.654Z,21.00
2019-04-01T03:15:55.705Z,20.60
2019-04-01T03:18:42.662Z,20.53
2019-04-01T03:21:30.078Z,20.93
2019-04-01T03:24:17.375Z,20.50
2019-04-01T03:27:04.591Z,22.57
2019-04-01T03:29:51.463Z,21.53
2019-04-01T03:32:44.782Z,24.03
2019-04-01T03:35:27.790Z,24.83
2019-04-01T03:38:14.806Z,25.80
2019-04-01T03:41:01.975Z,25.77
2019-04-01T03:43:49.211Z,24.33
2019-04-01T03:46:36.334Z,25.93
2019-04-01T03:49:23.137Z,25.60
2019-04-01T03:52:10.700Z,25.63
2019-04-01T03:54:58.077Z,25.07
2019-04-01T03:57:45.125Z,25.70
2019-04-01T04:00:32.448Z,26.73
2019-04-01T04:03:19.419Z,28.60
2019-04-01T04:06:06.205Z,30.37
2019-04-01T04:08:53.673Z,29.33
2019-04-01T04:11:40.653Z,28.63
2019-04-01T04:14:27.673Z,28.43
2019-04-01T04:17:14.770Z,31.23
2019-04-01T04:20:01.663Z,30.00
2019-04-01T04:22:48.675Z,29.73
2019-04-01T04:25:36.220Z,28.57
2019-04-01T04:28:23.259Z,28.93
2019-04-01T04:31:10.633Z,29.10
2019-04-01T04:33:57.952Z,27.97
2019-04-01T04:36:45.122Z,29.27
2019-04-01T04:39:32.218Z,27.27
2019-04-01T04:42:19.106Z,27.83
2019-04-01T04:45:07.329Z,28.03
2019-04-01T04:47:54.258Z,28.30
2019-04-01T04:50:41.534Z,29.50
2019-04-01T04:53:28.674Z,29.17
2019-04-01T04:56:15.819Z,29.53
2019-04-01T04:59:02.772Z,28.53
2019-04-01T05:01:49.867Z,30.00
2019-04-01T05:04:36.974Z,32.33
2019-04-01T05:07:23.741Z,30.97
2019-04-01T05:10:11.065Z,30.23
2019-04-01T05:12:58.768Z,31.57
2019-04-01T05:15:45.821Z,29.73
2019-04-01T05:18:33.038Z,29.53
2019-04-01T05:21:20.145Z,28.77
2019-04-01T05:24:07.254Z,29.50
2019-04-01T05:26:56.352Z,32.30
2019-04-01T05:29:43.582Z,30.37
2019-04-01T05:32:32.541Z,30.27
2019-04-01T05:35:19.817Z,30.60
2019-04-01T05:38:07.359Z,30.40
2019-04-01T05:40:54.352Z,31.40
2019-04-01T05:43:42.143Z,31.13
2019-04-01T05:46:29.472Z,31.70
2019-04-01T05:49:17.138Z,31.43
2019-04-01T05:52:04.444Z,33.43
2019-04-01T05:54:51.732Z,33.27
2019-04-01T05:57:39.311Z,32.33
2019-04-01T06:00:27.938Z,33.73
2019-04-01T06:03:15.084Z,33.47
2019-04-01T06:06:02.542Z,33.97
2019-04-01T06:08:49.832Z,32.40
2019-04-01T06:11:37.459Z,31.87
2019-04-01T06:14:25.037Z,31.90
2019-04-01T06:17:12.078Z,34.17
2019-04-01T06:19:59.862Z,35.30
2019-04-01T06:22:46.691Z,33.13
2019-04-01T06:25:34.019Z,35.73
2019-04-01T06:28:21.244Z,35.33
2019-04-01T06:31:08.345Z,37.13
2019-04-01T06:33:55.355Z,36.17
2019-04-01T06:36:42.375Z,38.70
2019-04-01T06:39:29.508Z,35.43
2019-04-01T06:42:16.862Z,36.63
2019-04-01T06:45:07.606Z,37.73
2019-04-01T06:47:54.909Z,37.33
2019-04-01T06:50:42.271Z,38.73
2019-04-01T06:53:29.775Z,42.53
2019-04-01T06:56:17.033Z,43.23
2019-04-01T06:59:03.862Z,41.37
2019-04-01T07:01:50.969Z,43.50
2019-04-01T07:04:38.169Z,44.53
2019-04-01T07:07:25.459Z,43.47
2019-04-01T07:10:12.613Z,43.73
2019-04-01T07:12:59.704Z,42.77
2019-04-01T07:15:46.872Z,42.50
2019-04-01T07:18:34.262Z,42.10
2019-04-01T07:21:22.085Z,41.83
2019-04-01T07:24:09.047Z,42.30
2019-04-01T07:26:56.157Z,43.20
2019-04-01T07:29:43.349Z,40.23
2019-04-01T07:32:30.497Z,39.73
2019-04-01T07:35:17.615Z,39.87
2019-04-01T07:38:05.022Z,40.47
2019-04-01T07:40:52.801Z,37.43
2019-04-01T07:43:40.108Z,39.63
2019-04-01T07:46:27.072Z,36.30
2019-04-01T07:49:14.525Z,39.47
2019-04-01T07:52:01.848Z,37.10
2019-04-01T07:54:48.966Z,40.33
2019-04-01T07:57:35.806Z,39.97
2019-04-01T08:00:23.184Z,39.07
2019-04-01T08:03:10.355Z,37.03
2019-04-01T08:05:57.729Z,39.57
2019-04-01T08:08:46.421Z,37.57
2019-04-01T08:11:33.695Z,39.30
2019-04-01T08:14:20.992Z,36.70
2019-04-01T08:17:08.094Z,37.20
2019-04-01T08:19:55.590Z,37.50
2019-04-01T08:22:43.549Z,37.60
2019-04-01T08:25:30.749Z,35.73
2019-04-01T08:28:17.951Z,35.20
2019-04-01T08:31:04.781Z,37.20
2019-04-01T08:33:52.120Z,36.10
2019-04-01T08:36:39.278Z,36.10
2019-04-01T08:39:26.537Z,36.07
2019-04-01T08:42:15.413Z,37.48
2019-04-01T08:45:04.600Z,37.42
2019-04-01T08:47:52.841Z,36.65
2019-04-01T08:50:40.880Z,35.60
2019-04-01T08:53:28.896Z,35.38
2019-04-01T08:56:16.435Z,35.73
2019-04-01T08:59:04.553Z,36.75
2019-04-01T09:01:52.839Z,35.98
2019-04-01T09:04:40.886Z,35.00
2019-04-01T09:07:28.744Z,34.55
2019-04-01T09:10:16.838Z,35.90
2019-04-01T09:13:04.749Z,37.15
2019-04-01T09:15:52.374Z,36.25
2019-04-01T09:18:40.282Z,36.23
2019-04-01T09:21:28.009Z,35.78
2019-04-01T09:24:15.821Z,35.80
2019-04-01T09:27:03.594Z,35.30
2019-04-01T09:29:51.550Z,35.23
2019-04-01T09:32:39.239Z,34.33
2019-04-01T09:35:26.861Z,33.38
2019-04-01T09:38:14.508Z,32.93
2019-04-01T09:41:02.393Z,34.88
2019-04-01T09:43:50.268Z,33.83
2019-04-01T09:46:37.889Z,34.33
2019-04-01T09:49:25.748Z,33.75
2019-04-01T09:52:13.722Z,34.10
2019-04-01T09:55:01.152Z,33.60
2019-04-01T09:57:48.484Z,34.67
2019-04-01T10:00:36.154Z,34.18
2019-04-01T10:03:23.786Z,35.80
2019-04-01T10:06:11.586Z,33.20
2019-04-01T10:08:58.841Z,33.23
2019-04-01T10:11:46.776Z,33.75
2019-04-01T10:14:34.687Z,35.05
2019-04-01T10:17:22.553Z,34.92
2019-04-01T10:20:10.868Z,33.80
2019-04-01T10:22:58.555Z,33.63
2019-04-01T10:25:46.017Z,33.95
2019-04-01T10:28:33.241Z,33.48
2019-04-01T10:31:20.892Z,34.35
2019-04-01T10:34:08.601Z,33.10
2019-04-01T10:36:56.742Z,33.13
2019-04-01T10:39:44.661Z,32.08
2019-04-01T10:42:32.196Z,32.05
2019-04-01T10:45:19.995Z,33.40
2019-04-01T10:48:07.828Z,32.25
2019-04-01T10:50:55.273Z,32.57
2019-04-01T10:53:43.098Z,31.42
2019-04-01T10:56:30.455Z,31.23
2019-04-01T10:59:17.836Z,32.77
2019-04-01T11:02:05.301Z,32.30
2019-04-01T11:04:53.097Z,30.70
2019-04-01T11:07:40.303Z,30.60
2019-04-01T11:10:27.670Z,30.90
2019-04-01T11:13:14.991Z,31.30
2019-04-01T11:16:02.578Z,29.83
2019-04-01T11:18:50.075Z,30.97
2019-04-01T11:21:37.521Z,31.73
2019-04-01T11:24:24.876Z,31.73
2019-04-01T11:27:12.046Z,31.73
2019-04-01T11:29:59.364Z,30.90
2019-04-01T11:32:47.088Z,29.97
2019-04-01T11:35:34.744Z,30.63
2019-04-01T11:38:22.577Z,29.30
2019-04-01T11:41:09.980Z,29.07
2019-04-01T11:43:57.633Z,29.70
2019-04-01T11:46:45.062Z,29.37
2019-04-01T11:49:32.510Z,29.13
2019-04-01T11:52:20.243Z,29.47
2019-04-01T11:55:08.907Z,28.83
2019-04-01T11:57:56.891Z,28.53
2019-04-01T12:00:44.228Z,29.73
2019-04-01T12:03:33.198Z,28.97
2019-04-01T12:06:21.187Z,28.10
2019-04-01T12:09:09.143Z,26.97
2019-04-01T12:11:56.523Z,27.63
2019-04-01T12:14:45.565Z,26.70
2019-04-01T12:17:32.938Z,28.27
2019-04-01T12:20:20.283Z,26.70
2019-04-01T12:23:07.295Z,27.57
2019-04-01T12:25:54.888Z,27.07
2019-04-01T12:28:42.703Z,26.77
2019-04-01T12:31:31.306Z,25.33
2019-04-01T12:34:18.831Z,24.57
2019-04-01T12:37:06.191Z,25.27
2019-04-01T12:39:53.833Z,25.47
2019-04-01T12:42:41.044Z,25.60
2019-04-01T12:45:28.550Z,24.80
2019-04-01T12:48:15.794Z,26.20
2019-04-01T12:51:03.188Z,25.10
2019-04-01T12:53:50.467Z,24.87
2019-04-01T12:56:38.060Z,25.00
2019-04-01T12:59:25.330Z,25.43
2019-04-01T13:02:12.930Z,23.97
2019-04-01T13:05:00.179Z,24.60
2019-04-01T13:07:47.458Z,24.43
2019-04-01T13:10:35.171Z,23.13
2019-04-01T13:13:22.928Z,23.97
2019-04-01T13:16:10.613Z,23.25
2019-04-01T13:18:58.175Z,25.17
2019-04-01T13:21:46.169Z,25.00
2019-04-01T13:24:33.916Z,24.65
2019-04-01T13:27:21.743Z,17.42
2019-04-01T13:30:09.846Z,17.05
2019-04-01T13:32:57.749Z,16.50
2019-04-01T13:35:45.314Z,15.60
2019-04-01T13:38:33.288Z,14.63
2019-04-01T13:41:24.831Z,15.83
2019-04-01T13:44:10.523Z,16.65
2019-04-01T13:46:58.500Z,17.45
2019-04-01T13:49:45.959Z,17.12
2019-04-01T13:52:33.594Z,17.37
2019-04-01T13:55:21.638Z,17.15
2019-04-01T13:58:10.570Z,16.55
2019-04-01T14:00:58.544Z,16.80
2019-04-01T14:03:45.906Z,17.80
2019-04-01T14:06:33.358Z,17.27
2019-04-01T14:09:20.918Z,17.73
2019-04-01T14:12:08.500Z,16.87
2019-04-01T14:14:55.506Z,17.17
2019-04-01T14:17:42.881Z,16.40
2019-04-01T14:20:30.150Z,17.20
2019-04-01T14:23:18.281Z,16.30
2019-04-01T14:26:06.061Z,18.10
2019-04-01T14:28:53.392Z,17.57
2019-04-01T14:31:40.408Z,18.87
2019-04-01T14:34:28.010Z,19.53
2019-04-01T14:37:25.096Z,17.70
2019-04-01T14:40:06.753Z,18.43
2019-04-01T14:42:54.491Z,20.40
2019-04-01T14:45:41.549Z,20.57
2019-04-01T14:48:30.482Z,22.10
2019-04-01T14:51:17.964Z,20.70
2019-04-01T14:54:06.103Z,20.23
2019-04-01T14:56:53.668Z,19.50
2019-04-01T14:59:41.025Z,21.57
2019-04-01T15:02:28.629Z,20.50
2019-04-01T15:05:15.754Z,19.80
2019-04-01T15:08:03.004Z,18.97
2019-04-01T15:10:50.798Z,21.60
2019-04-01T15:13:39.264Z,21.90
2019-04-01T15:16:27.048Z,20.08
2019-04-01T15:19:14.857Z,20.45
2019-04-01T15:22:02.778Z,22.63
2019-04-01T15:24:50.444Z,24.03
2019-04-01T15:27:37.823Z,23.13
2019-04-01T15:30:24.891Z,22.77
2019-04-01T15:33:12.446Z,23.43
2019-04-01T15:35:59.862Z,23.60
2019-04-01T15:38:47.134Z,23.53
2019-04-01T15:41:34.785Z,23.90
2019-04-01T15:44:22.556Z,23.80
2019-04-01T15:47:10.120Z,24.18
2019-04-01T15:49:58.067Z,23.02
2019-04-01T15:52:46.006Z,23.70
2019-04-01T15:55:33.546Z,24.15
2019-04-01T15:58:21.065Z,22.90
2019-04-01T16:01:09.182Z,24.92
2019-04-01T16:03:57.030Z,24.25
2019-04-01T16:06:47.661Z,24.85
2019-04-01T16:09:35.569Z,25.08
2019-04-01T16:12:22.928Z,24.57
2019-04-01T16:15:10.730Z,25.00
2019-04-01T16:17:58.013Z,24.57
2019-04-01T16:20:45.704Z,24.23
2019-04-01T16:23:33.463Z,24.60
2019-04-01T16:26:21.100Z,23.70
2019-04-01T16:29:09.121Z,24.10
2019-04-01T16:31:57.753Z,25.25
2019-04-01T16:34:45.862Z,24.90
2019-04-01T16:37:33.636Z,24.32
2019-04-01T16:40:21.341Z,24.07
2019-04-01T16:43:09.019Z,25.00
2019-04-01T16:45:56.695Z,24.77
2019-04-01T16:48:46.455Z,25.12
2019-04-01T16:51:33.416Z,23.62
2019-04-01T16:54:21.307Z,26.27
2019-04-01T16:57:09.201Z,26.68
2019-04-01T16:59:57.124Z,26.02
2019-04-01T17:02:44.665Z,26.15
2019-04-01T17:05:33.947Z,25.37
2019-04-01T17:08:21.656Z,25.75
2019-04-01T17:11:09.606Z,25.17
2019-04-01T17:13:56.950Z,24.85
2019-04-01T17:16:44.562Z,25.77
2019-04-01T17:19:31.924Z,25.80
2019-04-01T17:22:21.342Z,26.70
2019-04-01T17:25:09.080Z,26.05
2019-04-01T17:27:57.150Z,26.68
2019-04-01T17:30:44.991Z,26.02
2019-04-01T17:33:32.997Z,26.65
2019-04-01T17:36:20.657Z,26.45
2019-04-01T17:39:12.136Z,28.20
2019-04-01T17:41:57.978Z,28.15
2019-04-01T17:44:46.151Z,27.70
2019-04-01T17:47:34.453Z,28.12
2019-04-01T17:50:23.266Z,28.57
2019-04-01T17:53:12.027Z,27.50
2019-04-01T17:55:59.402Z,29.20
2019-04-01T17:58:47.347Z,28.25
2019-04-01T18:01:35.345Z,29.65
2019-04-01T18:04:22.772Z,29.13
2019-04-01T18:07:09.923Z,29.30
2019-04-01T18:09:57.133Z,27.97
2019-04-01T18:12:44.293Z,29.13
2019-04-01T18:15:31.462Z,29.43
2019-04-01T18:18:26.726Z,27.53
2019-04-01T18:21:07.290Z,27.20
2019-04-01T18:23:54.901Z,27.23
2019-04-01T18:26:42.266Z,26.30
2019-04-01T18:29:29.060Z,26.20
2019-04-01T18:32:16.390Z,28.10
2019-04-01T18:35:04.698Z,25.10
2019-04-01T18:37:52.059Z,24.47
2019-04-01T18:40:39.259Z,24.03
2019-04-01T18:43:27.277Z,24.77
2019-04-01T18:46:15.197Z,23.83
2019-04-01T18:49:02.280Z,23.67
2019-04-01T18:51:49.597Z,25.67
2019-04-01T18:54:37.071Z,25.87
2019-04-01T18:57:24.564Z,25.27
2019-04-01T19:00:12.267Z,26.80
2019-04-01T19:02:59.397Z,31.03
2019-04-01T19:05:47.094Z,29.93
2019-04-01T19:08:34.406Z,29.23
2019-04-01T19:11:21.797Z,29.83
2019-04-01T19:14:09.194Z,27.50
2019-04-01T19:16:56.333Z,28.33
2019-04-01T19:19:43.201Z,27.00
2019-04-01T19:22:30.558Z,28.70
2019-04-01T19:25:17.680Z,30.03
2019-04-01T19:28:05.012Z,35.33
2019-04-01T19:30:52.101Z,34.87
2019-04-01T19:33:39.140Z,30.73
2019-04-01T19:36:25.962Z,29.83
2019-04-01T19:39:13.338Z,29.37
2019-04-01T19:42:00.464Z,28.70
2019-04-01T19:44:47.977Z,29.33
2019-04-01T19:47:35.112Z,27.83
2019-04-01T19:50:22.512Z,29.53
2019-04-01T19:53:09.600Z,27.13
2019-04-01T19:55:56.960Z,28.27
2019-04-01T19:58:43.602Z,28.30
2019-04-01T20:01:30.418Z,29.07
2019-04-01T20:04:17.159Z,30.17
2019-04-01T20:07:04.548Z,29.40
2019-04-01T20:09:51.834Z,28.97
2019-04-01T20:12:38.957Z,30.07
2019-04-01T20:15:26.452Z,31.30
2019-04-01T20:18:13.865Z,30.77
2019-04-01T20:21:01.265Z,31.30
2019-04-01T20:23:48.446Z,31.77
2019-04-01T20:26:35.639Z,31.27
2019-04-01T20:29:22.708Z,31.37
2019-04-01T20:32:17.098Z,31.77
2019-04-01T20:34:59.523Z,31.77
2019-04-01T20:37:46.921Z,31.47
2019-04-01T20:40:34.051Z,32.00
2019-04-01T20:43:21.198Z,34.10
2019-04-01T20:46:08.405Z,32.83
2019-04-01T20:48:55.405Z,32.43
2019-04-01T20:51:42.849Z,33.17
2019-04-01T20:54:30.238Z,32.67
2019-04-01T20:57:17.396Z,33.20
2019-04-01T21:00:09.199Z,33.37
2019-04-01T21:02:56.207Z,33.67
2019-04-01T21:05:42.945Z,31.93
2019-04-01T21:08:30.151Z,31.83
2019-04-01T21:11:17.031Z,33.63
2019-04-01T21:14:05.103Z,36.37
2019-04-01T21:16:51.810Z,35.63
2019-04-01T21:19:39.002Z,35.27
2019-04-01T21:22:26.094Z,33.87
2019-04-01T21:25:13.667Z,33.37
2019-04-01T21:28:01.034Z,32.47
2019-04-01T21:30:48.175Z,33.97
2019-04-01T21:33:36.033Z,33.50
2019-04-01T21:36:22.997Z,33.10
2019-04-01T21:39:10.339Z,32.77
2019-04-01T21:41:57.777Z,32.83
2019-04-01T21:44:44.974Z,33.50
2019-04-01T21:47:32.183Z,32.20
2019-04-01T21:50:19.430Z,33.87
2019-04-01T21:53:06.622Z,34.70
2019-04-01T21:55:54.146Z,32.93
2019-04-01T21:58:41.584Z,32.57
2019-04-01T22:01:28.890Z,32.27
2019-04-01T22:04:16.118Z,32.83
2019-04-01T22:07:03.016Z,31.47
2019-04-01T22:09:50.470Z,32.77
2019-04-01T22:12:37.740Z,32.33
2019-04-01T22:15:24.825Z,32.87
2019-04-01T22:18:12.165Z,30.77
2019-04-01T22:20:59.288Z,30.07
2019-04-01T22:23:45.971Z,30.83
2019-04-01T22:26:32.804Z,30.90
2019-04-01T22:29:20.086Z,29.50
2019-04-01T22:32:07.340Z,30.43
2019-04-01T22:34:54.267Z,30.50
2019-04-01T22:37:41.733Z,30.07
2019-04-01T22:40:30.435Z,29.53
2019-04-01T22:43:17.237Z,31.57
2019-04-01T22:46:04.698Z,29.67
2019-04-01T22:48:51.727Z,29.47
2019-04-01T22:51:38.786Z,29.83
2019-04-01T22:54:25.721Z,30.03
2019-04-01T22:57:13.087Z,30.43
2019-04-01T23:00:00.102Z,29.47
2019-04-01T23:02:47.037Z,28.87
2019-04-01T23:05:34.341Z,30.60
2019-04-01T23:08:21.841Z,29.33
2019-04-01T23:11:08.857Z,28.83
2019-04-01T23:13:56.143Z,31.00
2019-04-01T23:16:43.533Z,30.07
2019-04-01T23:19:30.215Z,29.27
2019-04-01T23:22:17.238Z,29.20
2019-04-01T23:25:05.715Z,30.30
2019-04-01T23:27:52.404Z,30.53
2019-04-01T23:30:39.502Z,30.93
2019-04-01T23:33:26.945Z,31.17
2019-04-01T23:36:13.910Z,31.70
2019-04-01T23:39:01.030Z,30.53
2019-04-01T23:41:48.363Z,31.03
2019-04-01T23:44:35.293Z,31.73
2019-04-01T23:47:22.629Z,30.93
2019-04-01T23:50:09.956Z,31.63
2019-04-01T23:52:57.483Z,30.03
2019-04-01T23:55:44.205Z,29.27
2019-04-01T23:58:31.327Z,31.43
